createdAt,value
2018-09-25T00:00:44.568Z,0
2018-09-25T00:01:45.237Z,0
2018-09-25T00:02:45.909Z,0
2018-09-25T00:03:46.625Z,0
2018-09-25T00:04:47.295Z,0
2018-09-25T00:05:47.965Z,0
2018-09-25T00:06:48.634Z,0
2018-09-25T00:07:49.305Z,0
2018-09-25T00:08:49.975Z,0
2018-09-25T00:09:50.650Z,0
2018-09-25T00:10:51.317Z,0
2018-09-25T00:11:51.990Z,0
2018-09-25T00:12:52.662Z,0
2018-09-25T00:13:53.331Z,0
2018-09-25T00:14:54.000Z,0
2018-09-25T00:15:54.671Z,0
2018-09-25T00:16:55.342Z,0
2018-09-25T00:17:56.011Z,0
2018-09-25T00:18:56.681Z,0
2018-09-25T00:19:57.398Z,0
2018-09-25T00:20:58.024Z,0
2018-09-25T00:21:58.694Z,0
2018-09-25T00:22:59.362Z,0
2018-09-25T00:24:00.035Z,0
2018-09-25T00:25:00.706Z,0
2018-09-25T00:26:01.376Z,0
2018-09-25T00:27:02.045Z,0
2018-09-25T00:28:02.715Z,0
2018-09-25T00:29:03.386Z,0
2018-09-25T00:30:04.056Z,0
2018-09-25T00:31:04.727Z,0
2018-09-25T00:32:05.398Z,0
2018-09-25T00:33:06.069Z,0
2018-09-25T00:34:06.741Z,0
2018-09-25T00:35:07.412Z,0
2018-09-25T00:36:08.081Z,0
2018-09-25T00:37:08.752Z,0
2018-09-25T00:38:09.423Z,0
2018-09-25T00:39:10.095Z,0
2018-09-25T00:40:10.764Z,0
2018-09-25T00:41:11.435Z,0
2018-09-25T00:42:12.151Z,0
2018-09-25T00:43:12.823Z,0
2018-09-25T00:44:13.498Z,0
2018-09-25T00:45:14.163Z,0
2018-09-25T00:46:14.835Z,0
2018-09-25T00:47:15.511Z,0
2018-09-25T00:48:16.221Z,0
2018-09-25T00:49:16.891Z,0
2018-09-25T00:50:17.562Z,0
2018-09-25T00:51:18.232Z,0
2018-09-25T00:52:18.903Z,0
2018-09-25T00:53:19.573Z,0
2018-09-25T00:54:20.244Z,0
2018-09-25T00:55:20.917Z,0
2018-09-25T00:56:21.586Z,0
2018-09-25T00:57:22.255Z,0
2018-09-25T00:58:22.926Z,0
2018-09-25T00:59:23.596Z,0
2018-09-25T01:00:24.266Z,0
2018-09-25T01:01:24.935Z,0
2018-09-25T01:02:25.607Z,0
2018-09-25T01:03:26.278Z,0
2018-09-25T01:04:26.948Z,0
2018-09-25T01:05:27.623Z,0
2018-09-25T01:06:28.288Z,0
2018-09-25T01:07:28.958Z,0
2018-09-25T01:08:29.628Z,0
2018-09-25T01:09:30.298Z,0
2018-09-25T01:10:30.970Z,0
2018-09-25T01:11:31.640Z,0
2018-09-25T01:12:32.311Z,0
2018-09-25T01:13:32.980Z,0
2018-09-25T01:14:33.702Z,0
2018-09-25T01:15:34.373Z,0
2018-09-25T01:16:35.046Z,0
2018-09-25T01:17:35.761Z,0
2018-09-25T01:18:36.432Z,0
2018-09-25T01:19:37.101Z,0
2018-09-25T01:20:37.770Z,0
2018-09-25T01:21:38.441Z,0
2018-09-25T01:22:39.111Z,0
2018-09-25T01:23:39.785Z,0
2018-09-25T01:24:40.497Z,0
2018-09-25T01:25:41.167Z,0
2018-09-25T01:26:41.837Z,0
2018-09-25T01:27:42.507Z,0
2018-09-25T01:28:43.177Z,0
2018-09-25T01:29:43.849Z,0
2018-09-25T01:30:44.519Z,0
2018-09-25T01:31:45.235Z,0
2018-09-25T01:32:45.910Z,0
2018-09-25T01:33:46.576Z,0
2018-09-25T01:34:47.248Z,0
2018-09-25T01:35:47.916Z,0
2018-09-25T01:36:48.588Z,0
2018-09-25T01:37:49.259Z,0
2018-09-25T01:38:49.928Z,0
2018-09-25T01:39:50.599Z,0
2018-09-25T01:40:51.271Z,0
2018-09-25T01:41:51.940Z,0
2018-09-25T01:42:52.611Z,0
2018-09-25T01:43:53.283Z,0
2018-09-25T01:44:53.952Z,0
2018-09-25T01:45:54.623Z,0
2018-09-25T01:46:55.293Z,0
2018-09-25T01:47:56.009Z,0
2018-09-25T01:48:56.679Z,0
2018-09-25T01:49:57.352Z,0
2018-09-25T01:50:58.019Z,0
2018-09-25T01:51:58.691Z,0
2018-09-25T01:52:59.360Z,0
2018-09-25T01:54:00.033Z,0
2018-09-25T01:55:00.737Z,0
2018-09-25T01:56:01.406Z,0
2018-09-25T01:57:02.082Z,0
2018-09-25T01:58:02.795Z,0
2018-09-25T01:59:03.464Z,0
2018-09-25T02:00:04.133Z,0
2018-09-25T02:01:04.806Z,0
2018-09-25T02:02:05.519Z,0
2018-09-25T02:03:06.189Z,0
2018-09-25T02:04:06.860Z,0
2018-09-25T02:05:07.530Z,0
2018-09-25T02:06:08.199Z,0
2018-09-25T02:07:08.915Z,0
2018-09-25T02:08:09.586Z,0
2018-09-25T02:09:10.256Z,0
2018-09-25T02:10:10.927Z,0
2018-09-25T02:11:11.596Z,0
2018-09-25T02:12:12.268Z,0
2018-09-25T02:13:12.939Z,0
2018-09-25T02:14:13.608Z,0
2018-09-25T02:15:14.277Z,0
2018-09-25T02:16:14.949Z,0
2018-09-25T02:17:15.620Z,0
2018-09-25T02:18:16.289Z,0
2018-09-25T02:19:16.961Z,0
2018-09-25T02:20:17.630Z,0
2018-09-25T02:21:18.302Z,0
2018-09-25T02:22:18.972Z,0
2018-09-25T02:23:19.643Z,0
2018-09-25T02:24:20.313Z,0
2018-09-25T02:25:20.983Z,0
2018-09-25T02:26:21.652Z,0
2018-09-25T02:27:22.323Z,0
2018-09-25T02:28:22.993Z,0
2018-09-25T02:29:23.664Z,0
2018-09-25T02:30:24.334Z,0
2018-09-25T02:31:25.004Z,0
2018-09-25T02:32:25.672Z,0
2018-09-25T02:33:26.345Z,0
2018-09-25T02:34:27.013Z,0
2018-09-25T02:35:27.684Z,0
2018-09-25T02:36:28.352Z,0
2018-09-25T02:37:29.023Z,0
2018-09-25T02:38:29.693Z,0
2018-09-25T02:39:30.365Z,0
2018-09-25T02:40:31.033Z,0
2018-09-25T02:41:31.703Z,0
2018-09-25T02:42:32.372Z,0
2018-09-25T02:43:33.043Z,0
2018-09-25T02:44:33.713Z,0
2018-09-25T02:45:34.383Z,0
2018-09-25T02:46:35.053Z,0
2018-09-25T02:47:35.725Z,0
2018-09-25T02:48:36.396Z,0
2018-09-25T02:49:37.109Z,0
2018-09-25T02:50:37.777Z,0
2018-09-25T02:51:38.448Z,0
2018-09-25T02:52:39.119Z,0
2018-09-25T02:53:39.795Z,0
2018-09-25T02:54:40.505Z,0
2018-09-25T02:55:41.174Z,0
2018-09-25T02:56:41.848Z,0
2018-09-25T02:57:42.514Z,0
2018-09-25T02:58:43.183Z,0
2018-09-25T02:59:43.853Z,0
2018-09-25T03:00:44.572Z,0
2018-09-25T03:01:45.238Z,0
2018-09-25T03:02:45.910Z,0
2018-09-25T03:03:46.581Z,0
2018-09-25T03:04:47.250Z,0
2018-09-25T03:05:47.919Z,0
2018-09-25T03:06:48.590Z,0
2018-09-25T03:07:49.260Z,0
2018-09-25T03:08:49.933Z,0
2018-09-25T03:09:50.645Z,0
2018-09-25T03:10:51.318Z,0
2018-09-25T03:11:51.987Z,0
2018-09-25T03:12:52.655Z,0
2018-09-25T03:13:53.325Z,0
2018-09-25T03:14:53.996Z,0
2018-09-25T03:15:54.666Z,0
2018-09-25T03:16:55.335Z,0
2018-09-25T03:17:56.007Z,0
2018-09-25T03:18:56.676Z,0
2018-09-25T03:19:57.347Z,0
2018-09-25T03:20:58.017Z,0
2018-09-25T03:21:58.688Z,0
2018-09-25T03:22:59.359Z,0
2018-09-25T03:24:00.098Z,0
2018-09-25T03:25:00.743Z,0
2018-09-25T03:26:01.416Z,0
2018-09-25T03:27:02.127Z,0
2018-09-25T03:28:02.797Z,0
2018-09-25T03:29:03.466Z,0
2018-09-25T03:30:04.136Z,0
2018-09-25T03:31:04.821Z,0
2018-09-25T03:32:05.547Z,0
2018-09-25T03:33:06.193Z,0
2018-09-25T03:34:06.863Z,0
2018-09-25T03:35:07.533Z,0
2018-09-25T03:36:08.202Z,0
2018-09-25T03:37:08.873Z,0
2018-09-25T03:38:09.543Z,0
2018-09-25T03:39:10.213Z,0
2018-09-25T03:40:10.882Z,0
2018-09-25T03:41:11.552Z,0
2018-09-25T03:42:12.222Z,0
2018-09-25T03:43:12.892Z,0
2018-09-25T03:44:13.567Z,0
2018-09-25T03:45:14.279Z,0
2018-09-25T03:46:14.948Z,0
2018-09-25T03:47:15.620Z,0
2018-09-25T03:48:16.288Z,0
2018-09-25T03:49:16.963Z,0
2018-09-25T03:50:17.631Z,0
2018-09-25T03:51:18.303Z,0
2018-09-25T03:52:18.970Z,0
2018-09-25T03:53:19.640Z,0
2018-09-25T03:54:20.311Z,0
2018-09-25T03:55:20.980Z,0
2018-09-25T03:56:21.650Z,0
2018-09-25T03:57:22.322Z,0
2018-09-25T03:58:22.992Z,0
2018-09-25T03:59:23.664Z,0
2018-09-25T04:00:24.337Z,0
2018-09-25T04:01:25.004Z,0
2018-09-25T04:02:25.677Z,0
2018-09-25T04:03:26.347Z,0
2018-09-25T04:04:27.062Z,0
2018-09-25T04:05:27.737Z,0
2018-09-25T04:06:28.448Z,0
2018-09-25T04:07:29.118Z,0
2018-09-25T04:08:29.789Z,0
2018-09-25T04:09:30.459Z,0
2018-09-25T04:10:31.131Z,0
2018-09-25T04:11:31.798Z,0
2018-09-25T04:12:32.468Z,0
2018-09-25T04:13:33.144Z,0
2018-09-25T04:14:33.854Z,0
2018-09-25T04:15:34.528Z,0
2018-09-25T04:16:35.197Z,0
2018-09-25T04:17:35.867Z,0
2018-09-25T04:18:36.537Z,0
2018-09-25T04:19:37.216Z,0
2018-09-25T04:20:37.878Z,0
2018-09-25T04:21:38.547Z,0
2018-09-25T04:22:39.217Z,0
2018-09-25T04:23:39.892Z,0
2018-09-25T04:24:40.561Z,0
2018-09-25T04:25:41.241Z,0
2018-09-25T04:26:41.900Z,0
2018-09-25T04:27:42.572Z,0
2018-09-25T04:28:43.239Z,0
2018-09-25T04:29:43.912Z,0
2018-09-25T04:30:44.625Z,0
2018-09-25T04:31:45.296Z,0
2018-09-25T04:32:45.967Z,0
2018-09-25T04:33:46.644Z,0
2018-09-25T04:34:47.351Z,0
2018-09-25T04:35:48.021Z,0
2018-09-25T04:36:48.692Z,0
2018-09-25T04:37:49.406Z,0
2018-09-25T04:38:50.077Z,0
2018-09-25T04:39:50.748Z,0
2018-09-25T04:40:51.419Z,0
2018-09-25T04:41:52.089Z,0
2018-09-25T04:42:52.808Z,0
2018-09-25T04:43:53.523Z,0
2018-09-25T04:44:54.191Z,0
2018-09-25T04:45:54.861Z,0
2018-09-25T04:46:55.533Z,0
2018-09-25T04:47:56.221Z,0
2018-09-25T04:48:56.875Z,0
2018-09-25T04:49:57.548Z,0
2018-09-25T04:50:58.218Z,0
2018-09-25T04:51:58.891Z,0
2018-09-25T04:52:59.562Z,0
2018-09-25T04:54:00.236Z,0
2018-09-25T04:55:00.951Z,0
2018-09-25T04:56:01.671Z,0
2018-09-25T04:57:02.361Z,0
2018-09-25T04:58:03.016Z,0
2018-09-25T04:59:03.686Z,0
2018-09-25T05:00:04.358Z,0
2018-09-25T05:01:05.029Z,0
2018-09-25T05:02:05.701Z,0
2018-09-25T05:03:06.374Z,0
2018-09-25T05:04:07.046Z,0
2018-09-25T05:05:07.720Z,0
2018-09-25T05:06:08.392Z,0
2018-09-25T05:07:09.065Z,0
2018-09-25T05:08:09.737Z,5
2018-09-25T05:09:10.409Z,5
2018-09-25T05:10:11.082Z,5
2018-09-25T05:11:11.755Z,5
2018-09-25T05:12:12.518Z,5
2018-09-25T05:13:13.102Z,5
2018-09-25T05:14:13.773Z,5
2018-09-25T05:15:14.446Z,5
2018-09-25T05:16:15.119Z,5
2018-09-25T05:17:15.834Z,11
2018-09-25T05:18:16.556Z,11
2018-09-25T05:19:17.187Z,11
2018-09-25T05:20:17.859Z,11
2018-09-25T05:21:18.534Z,11
2018-09-25T05:22:19.257Z,11
2018-09-25T05:23:19.974Z,11
2018-09-25T05:24:20.641Z,16
2018-09-25T05:25:21.315Z,16
2018-09-25T05:26:21.988Z,22
2018-09-25T05:27:22.660Z,22
2018-09-25T05:28:23.383Z,22
2018-09-25T05:29:24.058Z,22
2018-09-25T05:30:24.730Z,22
2018-09-25T05:31:25.405Z,22
2018-09-25T05:32:26.121Z,22
2018-09-25T05:33:26.790Z,28
2018-09-25T05:34:27.468Z,28
2018-09-25T05:35:28.142Z,33
2018-09-25T05:36:28.816Z,33
2018-09-25T05:37:29.493Z,33
2018-09-25T05:38:30.169Z,28
2018-09-25T05:39:30.844Z,28
2018-09-25T05:40:31.519Z,28
2018-09-25T05:41:32.193Z,28
2018-09-25T05:42:32.868Z,28
2018-09-25T05:43:33.560Z,28
2018-09-25T05:44:34.263Z,28
2018-09-25T05:45:34.939Z,28
2018-09-25T05:46:35.616Z,33
2018-09-25T05:47:36.333Z,33
2018-09-25T05:48:37.017Z,33
2018-09-25T05:49:37.685Z,33
2018-09-25T05:50:38.359Z,39
2018-09-25T05:51:39.033Z,39
2018-09-25T05:52:39.713Z,39
2018-09-25T05:53:40.385Z,39
2018-09-25T05:54:41.059Z,39
2018-09-25T05:55:41.811Z,45
2018-09-25T05:56:42.412Z,45
2018-09-25T05:57:43.133Z,45
2018-09-25T05:58:43.853Z,50
2018-09-25T05:59:44.527Z,50
2018-09-25T06:00:45.203Z,50
2018-09-25T06:01:45.880Z,45
2018-09-25T06:02:46.554Z,45
2018-09-25T06:03:47.273Z,45
2018-09-25T06:04:47.950Z,45
2018-09-25T06:05:48.628Z,45
2018-09-25T06:06:49.345Z,45
2018-09-25T06:07:50.021Z,45
2018-09-25T06:08:50.695Z,45
2018-09-25T06:09:51.372Z,45
2018-09-25T06:10:52.045Z,45
2018-09-25T06:11:52.720Z,45
2018-09-25T06:12:53.395Z,45
2018-09-25T06:13:54.071Z,45
2018-09-25T06:14:54.745Z,45
2018-09-25T06:15:55.422Z,45
2018-09-25T06:16:56.097Z,50
2018-09-25T06:17:56.771Z,50
2018-09-25T06:18:57.446Z,50
2018-09-25T06:19:58.122Z,50
2018-09-25T06:20:58.798Z,50
2018-09-25T06:21:59.517Z,50
2018-09-25T06:23:00.247Z,50
2018-09-25T06:24:00.867Z,50
2018-09-25T06:25:01.543Z,56
2018-09-25T06:26:02.216Z,56
2018-09-25T06:27:02.891Z,56
2018-09-25T06:28:03.567Z,56
2018-09-25T06:29:04.288Z,56
2018-09-25T06:30:04.917Z,56
2018-09-25T06:31:05.639Z,56
2018-09-25T06:32:06.314Z,56
2018-09-25T06:33:06.991Z,56
2018-09-25T06:34:07.664Z,56
2018-09-25T06:35:08.341Z,56
2018-09-25T06:36:09.015Z,56
2018-09-25T06:37:09.698Z,56
2018-09-25T06:38:10.405Z,56
2018-09-25T06:39:11.080Z,56
2018-09-25T06:40:11.799Z,56
2018-09-25T06:41:12.474Z,56
2018-09-25T06:42:13.149Z,61
2018-09-25T06:43:13.826Z,61
2018-09-25T06:44:14.498Z,61
2018-09-25T06:45:15.174Z,61
2018-09-25T06:46:15.861Z,61
2018-09-25T06:47:16.562Z,61
2018-09-25T06:48:17.200Z,61
2018-09-25T06:49:17.877Z,61
2018-09-25T06:50:18.553Z,61
2018-09-25T06:51:19.227Z,61
2018-09-25T06:52:19.905Z,61
2018-09-25T06:53:20.578Z,67
2018-09-25T06:54:21.253Z,67
2018-09-25T06:55:21.961Z,67
2018-09-25T06:56:22.602Z,67
2018-09-25T06:57:23.278Z,67
2018-09-25T06:58:23.955Z,67
2018-09-25T06:59:24.628Z,67
2018-09-25T07:00:25.309Z,67
2018-09-25T07:01:25.978Z,67
2018-09-25T07:02:26.654Z,67
2018-09-25T07:03:27.334Z,67
2018-09-25T07:04:28.009Z,67
2018-09-25T07:05:28.682Z,67
2018-09-25T07:06:29.357Z,73
2018-09-25T07:07:30.035Z,73
2018-09-25T07:08:30.754Z,73
2018-09-25T07:09:31.450Z,73
2018-09-25T07:10:32.329Z,73
2018-09-25T07:11:32.780Z,73
2018-09-25T07:12:33.456Z,73
2018-09-25T07:13:34.130Z,73
2018-09-25T07:14:34.806Z,73
2018-09-25T07:15:35.482Z,73
2018-09-25T07:16:36.156Z,73
2018-09-25T07:17:36.903Z,73
2018-09-25T07:18:37.506Z,73
2018-09-25T07:19:38.182Z,78
2018-09-25T07:20:38.856Z,78
2018-09-25T07:21:39.531Z,78
2018-09-25T07:22:40.259Z,78
2018-09-25T07:23:40.883Z,73
2018-09-25T07:24:41.594Z,73
2018-09-25T07:25:42.234Z,73
2018-09-25T07:26:42.913Z,73
2018-09-25T07:27:43.585Z,73
2018-09-25T07:28:44.262Z,73
2018-09-25T07:29:44.937Z,78
2018-09-25T07:30:45.613Z,78
2018-09-25T07:31:46.287Z,78
2018-09-25T07:32:46.961Z,84
2018-09-25T07:33:47.637Z,90
2018-09-25T07:34:48.311Z,90
2018-09-25T07:35:48.986Z,101
2018-09-25T07:36:49.663Z,106
2018-09-25T07:37:51.093Z,112
2018-09-25T07:38:51.709Z,118
2018-09-25T07:39:52.385Z,123
2018-09-25T07:40:53.107Z,135
2018-09-25T07:41:53.782Z,146
2018-09-25T07:42:54.458Z,157
2018-09-25T07:43:55.134Z,185
2018-09-25T07:44:55.815Z,202
2018-09-25T07:45:56.535Z,219
2018-09-25T07:46:57.213Z,219
2018-09-25T07:47:57.891Z,219
2018-09-25T07:48:58.569Z,219
2018-09-25T07:49:59.245Z,219
2018-09-25T07:50:59.921Z,219
2018-09-25T07:52:00.601Z,225
2018-09-25T07:53:01.279Z,219
2018-09-25T07:54:01.956Z,219
2018-09-25T07:55:02.635Z,219
2018-09-25T07:56:03.314Z,219
2018-09-25T07:57:03.993Z,219
2018-09-25T07:58:04.670Z,219
2018-09-25T07:59:05.348Z,213
2018-09-25T08:00:06.027Z,213
2018-09-25T08:01:06.710Z,208
2018-09-25T08:02:07.386Z,208
2018-09-25T08:03:08.108Z,208
2018-09-25T08:04:08.746Z,202
2018-09-25T08:05:09.427Z,202
2018-09-25T08:06:10.112Z,196
2018-09-25T08:07:10.832Z,196
2018-09-25T08:08:11.512Z,191
2018-09-25T08:09:12.345Z,191
2018-09-25T08:10:12.915Z,185
2018-09-25T08:11:13.595Z,185
2018-09-25T08:12:14.274Z,185
2018-09-25T08:13:14.959Z,185
2018-09-25T08:14:15.638Z,180
2018-09-25T08:15:16.325Z,180
2018-09-25T08:16:17.000Z,180
2018-09-25T08:17:17.683Z,180
2018-09-25T08:18:18.366Z,180
2018-09-25T08:19:19.046Z,191
2018-09-25T08:20:19.729Z,196
2018-09-25T08:21:20.412Z,213
2018-09-25T08:22:21.095Z,225
2018-09-25T08:23:21.777Z,236
2018-09-25T08:24:22.459Z,236
2018-09-25T08:25:23.141Z,219
2018-09-25T08:26:23.830Z,191
2018-09-25T08:27:24.508Z,191
2018-09-25T08:28:25.190Z,196
2018-09-25T08:29:25.873Z,196
2018-09-25T08:30:26.557Z,196
2018-09-25T08:31:27.240Z,208
2018-09-25T08:32:27.972Z,241
2018-09-25T08:33:28.699Z,253
2018-09-25T08:34:29.381Z,270
2018-09-25T08:35:30.064Z,258
2018-09-25T08:36:30.748Z,270
2018-09-25T08:37:31.434Z,258
2018-09-25T08:38:32.120Z,146
2018-09-25T08:39:33.036Z,157
2018-09-25T08:40:33.488Z,112
2018-09-25T08:41:34.168Z,90
2018-09-25T08:42:34.848Z,90
2018-09-25T08:43:35.534Z,84
2018-09-25T08:44:36.214Z,95
2018-09-25T08:45:36.953Z,168
2018-09-25T08:46:37.579Z,157
2018-09-25T08:47:38.262Z,84
2018-09-25T08:48:38.946Z,163
2018-09-25T08:49:39.629Z,157
2018-09-25T08:50:40.311Z,157
2018-09-25T08:51:40.993Z,157
2018-09-25T08:52:41.677Z,157
2018-09-25T08:53:42.361Z,157
2018-09-25T08:54:43.041Z,151
2018-09-25T08:55:43.725Z,151
2018-09-25T08:56:44.408Z,151
2018-09-25T08:57:45.092Z,157
2018-09-25T08:58:45.774Z,157
2018-09-25T08:59:46.456Z,157
2018-09-25T09:00:47.152Z,163
2018-09-25T09:01:47.868Z,168
2018-09-25T09:02:48.552Z,163
2018-09-25T09:03:49.233Z,168
2018-09-25T09:04:49.916Z,180
2018-09-25T09:05:50.601Z,191
2018-09-25T09:06:51.282Z,208
2018-09-25T09:07:51.964Z,196
2018-09-25T09:08:52.646Z,174
2018-09-25T09:09:53.328Z,157
2018-09-25T09:10:54.013Z,146
2018-09-25T09:11:54.698Z,146
2018-09-25T09:12:55.427Z,146
2018-09-25T09:13:56.110Z,146
2018-09-25T09:14:56.791Z,146
2018-09-25T09:15:57.476Z,146
2018-09-25T09:16:58.158Z,146
2018-09-25T09:17:58.840Z,146
2018-09-25T09:18:59.523Z,146
2018-09-25T09:20:00.302Z,146
2018-09-25T09:21:00.935Z,78
2018-09-25T09:22:01.617Z,73
2018-09-25T09:23:02.346Z,146
2018-09-25T09:24:03.028Z,140
2018-09-25T09:25:03.729Z,146
2018-09-25T09:26:04.396Z,135
2018-09-25T09:27:05.078Z,135
2018-09-25T09:28:05.765Z,135
2018-09-25T09:29:06.446Z,135
2018-09-25T09:30:07.173Z,135
2018-09-25T09:31:07.859Z,140
2018-09-25T09:32:08.586Z,140
2018-09-25T09:33:09.268Z,146
2018-09-25T09:34:09.950Z,146
2018-09-25T09:35:10.640Z,157
2018-09-25T09:36:11.317Z,185
2018-09-25T09:37:12.000Z,191
2018-09-25T09:38:12.682Z,225
2018-09-25T09:39:13.366Z,236
2018-09-25T09:40:14.096Z,213
2018-09-25T09:41:14.831Z,151
2018-09-25T09:42:15.461Z,146
2018-09-25T09:43:16.156Z,140
2018-09-25T09:44:16.871Z,151
2018-09-25T09:45:17.554Z,140
2018-09-25T09:46:18.242Z,129
2018-09-25T09:47:18.968Z,140
2018-09-25T09:48:19.695Z,140
2018-09-25T09:49:20.393Z,135
2018-09-25T09:50:21.120Z,118
2018-09-25T09:51:21.827Z,112
2018-09-25T09:52:22.510Z,123
2018-09-25T09:53:23.191Z,174
2018-09-25T09:54:23.876Z,180
2018-09-25T09:55:24.559Z,163
2018-09-25T09:56:25.262Z,191
2018-09-25T09:57:25.972Z,140
2018-09-25T09:58:26.653Z,123
2018-09-25T09:59:27.336Z,123
2018-09-25T10:00:28.019Z,118
2018-09-25T10:01:28.701Z,135
2018-09-25T10:02:29.382Z,196
2018-09-25T10:03:30.065Z,191
2018-09-25T10:04:30.801Z,180
2018-09-25T10:05:31.476Z,174
2018-09-25T10:06:32.158Z,157
2018-09-25T10:07:32.839Z,146
2018-09-25T10:08:33.522Z,185
2018-09-25T10:09:34.206Z,196
2018-09-25T10:10:34.888Z,196
2018-09-25T10:11:35.569Z,213
2018-09-25T10:12:36.329Z,241
2018-09-25T10:13:36.933Z,270
2018-09-25T10:14:37.642Z,309
2018-09-25T10:15:38.347Z,309
2018-09-25T10:16:39.025Z,292
2018-09-25T10:17:39.710Z,270
2018-09-25T10:18:40.452Z,208
2018-09-25T10:19:41.167Z,185
2018-09-25T10:20:41.851Z,202
2018-09-25T10:21:42.532Z,185
2018-09-25T10:22:43.215Z,157
2018-09-25T10:23:43.897Z,163
2018-09-25T10:24:44.580Z,163
2018-09-25T10:25:45.270Z,151
2018-09-25T10:26:45.988Z,157
2018-09-25T10:27:46.669Z,180
2018-09-25T10:28:47.350Z,174
2018-09-25T10:29:48.035Z,168
2018-09-25T10:30:48.716Z,174
2018-09-25T10:31:49.400Z,168
2018-09-25T10:32:50.097Z,174
2018-09-25T10:33:50.854Z,180
2018-09-25T10:34:51.492Z,208
2018-09-25T10:35:52.174Z,208
2018-09-25T10:36:52.859Z,174
2018-09-25T10:37:53.536Z,118
2018-09-25T10:38:54.217Z,95
2018-09-25T10:39:54.899Z,90
2018-09-25T10:40:55.661Z,90
2018-09-25T10:41:56.301Z,129
2018-09-25T10:42:56.983Z,129
2018-09-25T10:43:57.664Z,106
2018-09-25T10:44:58.346Z,112
2018-09-25T10:45:59.028Z,140
2018-09-25T10:46:59.708Z,146
2018-09-25T10:48:00.392Z,151
2018-09-25T10:49:01.074Z,157
2018-09-25T10:50:01.774Z,157
2018-09-25T10:51:02.435Z,157
2018-09-25T10:52:03.116Z,163
2018-09-25T10:53:03.797Z,157
2018-09-25T10:54:04.477Z,157
2018-09-25T10:55:05.158Z,157
2018-09-25T10:56:06.016Z,163
2018-09-25T10:57:06.559Z,163
2018-09-25T10:58:07.253Z,157
2018-09-25T10:59:07.969Z,151
2018-09-25T11:00:08.650Z,129
2018-09-25T11:01:09.333Z,106
2018-09-25T11:02:10.013Z,106
2018-09-25T11:03:10.766Z,112
2018-09-25T11:04:11.375Z,123
2018-09-25T11:05:12.056Z,129
2018-09-25T11:06:12.739Z,146
2018-09-25T11:07:13.437Z,146
2018-09-25T11:08:14.143Z,196
2018-09-25T11:09:14.826Z,219
2018-09-25T11:10:15.511Z,230
2018-09-25T11:11:16.189Z,247
2018-09-25T11:12:16.875Z,247
2018-09-25T11:13:17.597Z,213
2018-09-25T11:14:18.279Z,191
2018-09-25T11:15:18.964Z,174
2018-09-25T11:16:19.641Z,157
2018-09-25T11:17:20.324Z,146
2018-09-25T11:18:21.051Z,129
2018-09-25T11:19:21.734Z,140
2018-09-25T11:20:22.417Z,129
2018-09-25T11:21:23.098Z,123
2018-09-25T11:22:23.778Z,135
2018-09-25T11:23:24.461Z,95
2018-09-25T11:24:25.186Z,95
2018-09-25T11:25:25.922Z,95
2018-09-25T11:26:26.551Z,123
2018-09-25T11:27:27.229Z,123
2018-09-25T11:28:27.909Z,123
2018-09-25T11:29:28.592Z,135
2018-09-25T11:30:29.272Z,146
2018-09-25T11:31:29.952Z,157
2018-09-25T11:32:30.634Z,168
2018-09-25T11:33:31.315Z,174
2018-09-25T11:34:31.997Z,180
2018-09-25T11:35:32.676Z,168
2018-09-25T11:36:33.358Z,163
2018-09-25T11:37:34.040Z,163
2018-09-25T11:38:34.721Z,163
2018-09-25T11:39:35.402Z,157
2018-09-25T11:40:36.089Z,163
2018-09-25T11:41:36.812Z,163
2018-09-25T11:42:37.493Z,151
2018-09-25T11:43:38.175Z,135
2018-09-25T11:44:38.855Z,123
2018-09-25T11:45:39.538Z,106
2018-09-25T11:46:40.284Z,95
2018-09-25T11:47:40.897Z,95
2018-09-25T11:48:41.576Z,146
2018-09-25T11:49:42.303Z,140
2018-09-25T11:50:42.940Z,135
2018-09-25T11:51:43.622Z,129
2018-09-25T11:52:44.395Z,135
2018-09-25T11:53:45.034Z,129
2018-09-25T11:54:45.714Z,112
2018-09-25T11:55:46.396Z,123
2018-09-25T11:56:47.077Z,129
2018-09-25T11:57:47.757Z,140
2018-09-25T11:58:48.484Z,151
2018-09-25T11:59:49.163Z,118
2018-09-25T12:00:49.844Z,90
2018-09-25T12:01:50.524Z,84
2018-09-25T12:02:51.203Z,84
2018-09-25T12:03:51.884Z,84
2018-09-25T12:04:52.564Z,78
2018-09-25T12:05:53.243Z,73
2018-09-25T12:06:53.924Z,67
2018-09-25T12:07:54.604Z,67
2018-09-25T12:08:55.353Z,67
2018-09-25T12:09:56.049Z,67
2018-09-25T12:10:56.771Z,67
2018-09-25T12:11:57.492Z,73
2018-09-25T12:12:58.177Z,73
2018-09-25T12:13:58.859Z,78
2018-09-25T12:14:59.537Z,84
2018-09-25T12:16:00.261Z,90
2018-09-25T12:17:00.945Z,95
2018-09-25T12:18:01.666Z,95
2018-09-25T12:19:02.345Z,95
2018-09-25T12:20:03.101Z,106
2018-09-25T12:21:03.708Z,123
2018-09-25T12:22:04.408Z,185
2018-09-25T12:23:05.114Z,202
2018-09-25T12:24:05.793Z,191
2018-09-25T12:25:06.479Z,196
2018-09-25T12:26:07.201Z,213
2018-09-25T12:27:07.883Z,202
2018-09-25T12:28:08.608Z,202
2018-09-25T12:29:09.288Z,185
2018-09-25T12:30:09.968Z,174
2018-09-25T12:31:10.649Z,151
2018-09-25T12:32:11.331Z,140
2018-09-25T12:33:12.015Z,140
2018-09-25T12:34:12.695Z,129
2018-09-25T12:35:13.375Z,123
2018-09-25T12:36:14.406Z,118
2018-09-25T12:37:15.024Z,123
2018-09-25T12:38:15.728Z,112
2018-09-25T12:39:16.433Z,118
2018-09-25T12:40:17.114Z,90
2018-09-25T12:41:17.793Z,84
2018-09-25T12:42:18.472Z,123
2018-09-25T12:43:19.155Z,123
2018-09-25T12:44:19.834Z,123
2018-09-25T12:45:20.515Z,129
2018-09-25T12:46:21.193Z,129
2018-09-25T12:47:21.874Z,129
2018-09-25T12:48:22.556Z,135
2018-09-25T12:49:23.284Z,95
2018-09-25T12:50:23.962Z,135
2018-09-25T12:51:24.643Z,129
2018-09-25T12:52:25.363Z,157
2018-09-25T12:53:26.005Z,118
2018-09-25T12:54:26.686Z,123
2018-09-25T12:55:27.371Z,168
2018-09-25T12:56:28.048Z,180
2018-09-25T12:57:28.729Z,174
2018-09-25T12:58:29.409Z,168
2018-09-25T12:59:30.149Z,163
2018-09-25T13:00:30.863Z,157
2018-09-25T13:01:31.561Z,163
2018-09-25T13:02:32.269Z,185
2018-09-25T13:03:32.952Z,129
2018-09-25T13:04:33.716Z,163
2018-09-25T13:05:34.361Z,163
2018-09-25T13:06:35.044Z,163
2018-09-25T13:07:35.760Z,163
2018-09-25T13:08:36.442Z,213
2018-09-25T13:09:37.181Z,264
2018-09-25T13:10:37.891Z,213
2018-09-25T13:11:38.569Z,151
2018-09-25T13:12:39.251Z,140
2018-09-25T13:13:39.932Z,146
2018-09-25T13:14:40.651Z,135
2018-09-25T13:15:41.338Z,135
2018-09-25T13:16:42.023Z,129
2018-09-25T13:17:42.725Z,123
2018-09-25T13:18:43.384Z,123
2018-09-25T13:19:44.065Z,118
2018-09-25T13:20:44.746Z,123
2018-09-25T13:21:45.430Z,123
2018-09-25T13:22:46.118Z,129
2018-09-25T13:23:46.890Z,135
2018-09-25T13:24:47.518Z,146
2018-09-25T13:25:48.200Z,151
2018-09-25T13:26:48.881Z,151
2018-09-25T13:27:49.565Z,163
2018-09-25T13:28:50.243Z,168
2018-09-25T13:29:50.925Z,157
2018-09-25T13:30:51.647Z,163
2018-09-25T13:31:52.336Z,151
2018-09-25T13:32:53.060Z,135
2018-09-25T13:33:53.735Z,135
2018-09-25T13:34:54.418Z,112
2018-09-25T13:35:55.099Z,135
2018-09-25T13:36:55.779Z,95
2018-09-25T13:37:56.530Z,84
2018-09-25T13:38:57.228Z,78
2018-09-25T13:39:57.912Z,73
2018-09-25T13:40:58.596Z,67
2018-09-25T13:41:59.317Z,67
2018-09-25T13:42:59.998Z,67
2018-09-25T13:44:00.686Z,67
2018-09-25T13:45:01.357Z,67
2018-09-25T13:46:02.037Z,67
2018-09-25T13:47:02.716Z,67
2018-09-25T13:48:03.445Z,67
2018-09-25T13:49:04.169Z,67
2018-09-25T13:50:04.850Z,112
2018-09-25T13:51:05.577Z,106
2018-09-25T13:52:06.257Z,106
2018-09-25T13:53:06.941Z,106
2018-09-25T13:54:07.621Z,106
2018-09-25T13:55:08.301Z,112
2018-09-25T13:56:09.058Z,112
2018-09-25T13:57:09.701Z,123
2018-09-25T13:58:10.382Z,118
2018-09-25T13:59:11.065Z,112
2018-09-25T14:00:11.779Z,112
2018-09-25T14:01:12.461Z,106
2018-09-25T14:02:13.160Z,106
2018-09-25T14:03:13.870Z,106
2018-09-25T14:04:14.551Z,106
2018-09-25T14:05:15.230Z,106
2018-09-25T14:06:16.120Z,106
2018-09-25T14:07:16.813Z,106
2018-09-25T14:08:17.523Z,61
2018-09-25T14:09:18.255Z,61
2018-09-25T14:10:18.923Z,61
2018-09-25T14:11:19.646Z,67
2018-09-25T14:12:20.343Z,61
2018-09-25T14:13:21.054Z,67
2018-09-25T14:14:21.778Z,56
2018-09-25T14:15:22.457Z,56
2018-09-25T14:16:23.137Z,61
2018-09-25T14:17:23.817Z,56
2018-09-25T14:18:24.601Z,56
2018-09-25T14:19:25.261Z,61
2018-09-25T14:20:25.944Z,101
2018-09-25T14:21:26.670Z,67
2018-09-25T14:22:27.348Z,67
2018-09-25T14:23:28.048Z,56
2018-09-25T14:24:28.761Z,67